Time;durP1;ratioP1;P1;durP2;ratioP2;P2;SDS_P1;SDS_P2;PMS_P1;PMS_P2;Temp;Humidity;BMP_temperature;BMP_pressure;BME280_temperature;BME280_humidity;BME280_pressure;Samples;Min_cycle;Max_cycle;Signal;HPM_P1;HPM_P2
2022/12/30 00:01:19;;;;;;;16.83;2.88;;;8.70;99.90;;;;;;6184660;23;20100;-81
2022/12/30 00:03:46;;;;;;;14.02;3.22;;;8.70;99.90;;;;;;6185476;23;20030;-79
2022/12/30 00:06:17;;;;;;;12.52;3.47;;;8.60;99.90;;;;;;6185037;23;20028;-81
2022/12/30 00:08:46;;;;;;;13.88;3.97;;;8.60;99.90;;;;;;6212657;23;20001;-81
2022/12/30 00:11:24;;;;;;;13.70;2.88;;;8.70;99.90;;;;;;6185343;23;20024;-81
2022/12/30 00:33:57;;;;;;;17.13;3.30;;;8.60;99.90;;;;;;6212716;23;20498;-80
2022/12/30 00:36:25;;;;;;;18.75;3.55;;;8.60;99.90;;;;;;6212043;23;20084;-79
2022/12/30 00:38:52;;;;;;;15.32;3.63;;;8.60;99.90;;;;;;6185250;23;20440;-78
2022/12/30 00:44:01;;;;;;;22.83;3.75;;;8.50;99.90;;;;;;6211936;23;20394;-78
2022/12/30 00:46:27;;;;;;;16.05;3.63;;;8.60;99.90;;;;;;6185125;23;20000;-79
2022/12/30 00:57:05;;;;;;;17.92;3.40;;;8.60;99.90;;;;;;6211698;23;20275;-78
2022/12/30 00:59:31;;;;;;;13.77;3.17;;;8.60;99.90;;;;;;6184231;23;20012;-79
2022/12/30 01:02:00;;;;;;;13.68;3.20;;;8.50;99.90;;;;;;6184926;23;20004;-79
2022/12/30 01:04:28;;;;;;;10.93;3.33;;;8.60;99.90;;;;;;6185245;23;20030;-79
2022/12/30 01:06:54;;;;;;;11.63;2.90;;;8.60;99.90;;;;;;6184848;23;20065;-79
2022/12/30 01:09:21;;;;;;;16.35;3.75;;;8.60;99.90;;;;;;6184478;23;20027;-78
2022/12/30 01:12:07;;;;;;;19.33;4.03;;;8.60;99.90;;;;;;6185036;23;20009;-79
2022/12/30 01:14:39;;;;;;;16.25;3.88;;;8.50;99.90;;;;;;6185466;23;20004;-80
2022/12/30 01:17:07;;;;;;;18.02;3.50;;;8.50;99.90;;;;;;6185073;23;20005;-80
2022/12/30 01:19:36;;;;;;;15.55;3.80;;;8.50;99.90;;;;;;6184491;23;20084;-80
2022/12/30 01:22:06;;;;;;;15.50;3.67;;;8.50;99.90;;;;;;6184974;23;20039;-79
2022/12/30 01:24:34;;;;;;;10.65;3.45;;;8.40;99.90;;;;;;6185076;23;20043;-79
2022/12/30 01:27:03;;;;;;;14.68;3.65;;;8.50;99.90;;;;;;6184686;23;20000;-79
2022/12/30 01:29:36;;;;;;;15.80;3.33;;;8.50;99.90;;;;;;6184305;23;20091;-79
2022/12/30 01:32:06;;;;;;;23.83;5.32;;;8.50;99.90;;;;;;6185098;23;20011;-79
2022/12/30 01:34:33;;;;;;;12.90;4.50;;;8.50;99.90;;;;;;6185265;23;20379;-79
2022/12/30 01:37:00;;;;;;;17.30;3.97;;;8.50;99.90;;;;;;6185044;23;20011;-79
2022/12/30 01:39:25;;;;;;;15.70;4.43;;;8.40;99.90;;;;;;6184295;23;20432;-79
2022/12/30 01:41:53;;;;;;;10.85;3.05;;;8.60;99.90;;;;;;6211389;23;20080;-78
2022/12/30 01:44:52;;;;;;;16.17;3.40;;;8.50;99.90;;;;;;6211928;23;20054;-79
2022/12/30 01:47:23;;;;;;;14.07;3.85;;;8.50;99.90;;;;;;6185452;23;20047;-77
2022/12/30 01:49:52;;;;;;;15.10;3.58;;;8.50;99.90;;;;;;6211431;23;20051;-77
2022/12/30 01:52:25;;;;;;;24.40;4.25;;;8.50;99.90;;;;;;6211470;23;20022;-77
2022/12/30 01:54:54;;;;;;;18.65;4.53;;;8.60;99.90;;;;;;6185150;23;20345;-77
2022/12/30 01:57:20;;;;;;;15.35;3.85;;;8.60;99.90;;;;;;6185091;23;20039;-77
2022/12/30 01:59:49;;;;;;;12.77;3.58;;;8.60;99.90;;;;;;6185925;23;20088;-77
2022/12/30 02:02:16;;;;;;;13.73;3.33;;;8.60;99.90;;;;;;6187520;23;20079;-78
2022/12/30 02:04:42;;;;;;;13.50;3.38;;;8.50;99.90;;;;;;6188330;23;20276;-78
2022/12/30 02:07:15;;;;;;;16.05;3.70;;;8.50;99.90;;;;;;6198961;23;20015;-81
2022/12/30 02:09:41;;;;;;;14.85;3.35;;;8.50;99.90;;;;;;6227137;23;20001;-81
2022/12/30 02:12:08;;;;;;;19.17;3.58;;;8.50;99.90;;;;;;6221392;23;20333;-82
2022/12/30 02:14:37;;;;;;;16.52;4.18;;;8.50;99.90;;;;;;6186973;23;20003;-82
2022/12/30 02:17:18;;;;;;;9.18;2.80;;;8.50;99.90;;;;;;6187360;23;20008;-83
2022/12/30 02:20:05;;;;;;;13.50;4.03;;;8.40;99.90;;;;;;6212150;23;20207;-82
2022/12/30 02:22:53;;;;;;;8.07;3.03;;;8.40;99.90;;;;;;6185686;23;20080;-82
2022/12/30 02:25:43;;;;;;;14.52;3.70;;;8.40;99.90;;;;;;6185469;23;20005;-82
2022/12/30 02:28:46;;;;;;;13.38;3.28;;;8.40;99.90;;;;;;6185357;23;20428;-81
2022/12/30 02:31:21;;;;;;;15.68;3.38;;;8.40;99.90;;;;;;6187576;23;20007;-84
2022/12/30 02:34:03;;;;;;;20.63;4.53;;;8.40;99.90;;;;;;6216005;23;19997;-83
2022/12/30 02:36:55;;;;;;;14.77;3.55;;;8.40;99.90;;;;;;6215246;23;20059;-82
2022/12/30 02:39:33;;;;;;;18.85;4.20;;;8.30;99.90;;;;;;6188710;23;20039;-83
2022/12/30 02:45:04;;;;;;;16.42;3.92;;;8.40;99.90;;;;;;6214296;23;20093;-83
2022/12/30 02:48:01;;;;;;;13.20;3.80;;;8.30;99.90;;;;;;6188940;23;20008;-83
2022/12/30 02:53:21;;;;;;;12.93;3.45;;;8.30;99.90;;;;;;6216663;23;20043;-83
2022/12/30 02:55:48;;;;;;;14.63;4.13;;;8.30;99.90;;;;;;6189890;23;20051;-84
2022/12/30 02:58:13;;;;;;;13.40;3.40;;;8.30;99.90;;;;;;6188466;23;20095;-83
2022/12/30 03:03:58;;;;;;;20.80;4.05;;;8.30;99.90;;;;;;6213617;23;20455;-84
2022/12/30 03:06:51;;;;;;;15.93;4.32;;;8.30;99.90;;;;;;6186908;23;20032;-83
2022/12/30 03:09:41;;;;;;;12.70;3.58;;;8.30;99.90;;;;;;6186901;23;20001;-83
2022/12/30 03:12:24;;;;;;;13.38;3.58;;;8.30;99.90;;;;;;6188202;23;20332;-84
2022/12/30 03:14:52;;;;;;;8.15;3.67;;;8.20;99.90;;;;;;6187160;23;20429;-84
2022/12/30 03:17:36;;;;;;;13.05;4.05;;;8.30;99.90;;;;;;6187084;23;20008;-84
2022/12/30 03:20:06;;;;;;;12.80;3.70;;;8.30;99.90;;;;;;6186063;23;20091;-84
2022/12/30 03:28:08;;;;;;;11.32;3.30;;;8.30;99.90;;;;;;6214791;23;20063;-84
2022/12/30 03:30:39;;;;;;;9.80;3.40;;;8.20;99.90;;;;;;6213792;23;20440;-84
2022/12/30 03:33:04;;;;;;;9.93;3.40;;;8.20;99.90;;;;;;6213785;23;19993;-83
2022/12/30 03:35:33;;;;;;;14.25;3.90;;;8.30;99.90;;;;;;6187331;23;20009;-83
2022/12/30 03:37:59;;;;;;;15.10;3.30;;;8.20;99.90;;;;;;6187108;23;20005;-84
2022/12/30 03:40:41;;;;;;;9.45;3.47;;;8.20;99.90;;;;;;6213196;23;20001;-83
2022/12/30 03:43:07;;;;;;;14.35;4.75;;;8.20;99.90;;;;;;6186770;23;20479;-83
2022/12/30 03:45:33;;;;;;;9.70;3.65;;;8.20;99.90;;;;;;6213820;23;20324;-83
2022/12/30 03:47:59;;;;;;;15.27;3.53;;;8.20;99.90;;;;;;6214869;23;20020;-83
2022/12/30 03:50:24;;;;;;;12.18;4.30;;;8.10;99.90;;;;;;6216286;23;20008;-83
2022/12/30 03:52:50;;;;;;;14.98;5.18;;;8.10;99.90;;;;;;6189696;23;20052;-83
2022/12/30 03:55:16;;;;;;;12.93;3.80;;;8.10;99.90;;;;;;6219394;23;20059;-82
2022/12/30 03:57:42;;;;;;;18.90;3.75;;;8.10;99.90;;;;;;6212179;23;20092;-83
2022/12/30 04:00:08;;;;;;;12.60;3.70;;;8.10;99.90;;;;;;6185908;23;20000;-83
2022/12/30 04:02:35;;;;;;;12.45;3.50;;;8.00;99.90;;;;;;6186246;23;20084;-83
2022/12/30 04:05:01;;;;;;;10.10;4.57;;;8.00;99.90;;;;;;6186656;23;20000;-82
2022/12/30 04:07:27;;;;;;;11.95;3.33;;;8.00;99.90;;;;;;6186276;23;20016;-82
2022/12/30 04:09:53;;;;;;;17.83;4.40;;;7.90;99.90;;;;;;6185462;23;20088;-83
2022/12/30 04:12:19;;;;;;;16.27;3.65;;;7.90;99.90;;;;;;6213704;23;20019;-82
2022/12/30 04:14:44;;;;;;;15.32;4.18;;;7.90;99.90;;;;;;6213945;23;20004;-83
2022/12/30 04:17:10;;;;;;;16.08;3.83;;;7.90;99.90;;;;;;6185729;23;20008;-82
2022/12/30 04:19:36;;;;;;;23.15;3.88;;;7.80;99.90;;;;;;6185558;23;20424;-83
2022/12/30 04:22:02;;;;;;;10.70;3.70;;;7.80;99.90;;;;;;6185720;23;20451;-83
2022/12/30 04:24:27;;;;;;;16.30;4.25;;;7.80;99.90;;;;;;6185875;23;20340;-82
2022/12/30 04:26:53;;;;;;;13.40;4.00;;;7.80;99.90;;;;;;6212298;23;20008;-82
2022/12/30 04:29:18;;;;;;;17.33;3.72;;;7.80;99.90;;;;;;6185413;23;20088;-84
2022/12/30 04:31:44;;;;;;;12.32;3.63;;;7.70;99.90;;;;;;6186248;23;20003;-84
2022/12/30 04:34:12;;;;;;;18.25;4.18;;;7.70;99.90;;;;;;6186233;23;20051;-84
2022/12/30 04:36:38;;;;;;;15.35;5.53;;;7.70;99.90;;;;;;6186238;23;20004;-84
2022/12/30 04:39:04;;;;;;;16.92;4.03;;;7.60;99.90;;;;;;6185962;23;20009;-84
2022/12/30 04:41:30;;;;;;;19.63;4.03;;;7.60;99.90;;;;;;6185817;23;20367;-84
2022/12/30 04:43:56;;;;;;;16.52;5.40;;;7.60;99.90;;;;;;6186184;23;20001;-84
2022/12/30 04:46:21;;;;;;;11.65;4.60;;;7.60;99.90;;;;;;6187456;23;20426;-85
2022/12/30 04:48:47;;;;;;;20.13;3.92;;;7.60;99.90;;;;;;6187776;23;20008;-85
2022/12/30 04:51:12;;;;;;;22.23;5.65;;;7.50;99.90;;;;;;6186245;23;20360;-85
2022/12/30 04:53:38;;;;;;;16.52;4.05;;;7.50;99.90;;;;;;6187233;23;20059;-82
2022/12/30 04:56:04;;;;;;;14.48;4.57;;;7.50;99.90;;;;;;6186398;23;20005;-84
2022/12/30 04:58:30;;;;;;;13.65;3.92;;;7.50;99.90;;;;;;6186885;23;20432;-84
2022/12/30 05:00:56;;;;;;;14.32;3.83;;;7.50;99.90;;;;;;6187389;23;20028;-85
2022/12/30 05:03:22;;;;;;;11.70;3.80;;;7.50;99.90;;;;;;6187269;23;20001;-83
2022/12/30 05:05:47;;;;;;;19.38;3.90;;;7.50;99.90;;;;;;6187565;23;20005;-84
2022/12/30 05:08:13;;;;;;;18.77;4.70;;;7.40;99.90;;;;;;6187542;23;20434;-84
2022/12/30 05:10:41;;;;;;;11.70;4.60;;;7.40;99.90;;;;;;6187104;23;20078;-84
2022/12/30 05:13:07;;;;;;;16.77;5.78;;;7.30;99.90;;;;;;6215622;23;19996;-84
2022/12/30 05:15:33;;;;;;;16.60;4.55;;;7.30;99.90;;;;;;6188751;23;20424;-83
2022/12/30 05:17:59;;;;;;;14.65;4.50;;;7.30;99.90;;;;;;6187480;23;20012;-85
2022/12/30 05:20:25;;;;;;;15.95;4.72;;;7.30;99.90;;;;;;6187341;23;20027;-85
2022/12/30 05:22:50;;;;;;;20.48;4.47;;;7.20;99.90;;;;;;6187587;23;20413;-85
2022/12/30 05:28:00;;;;;;;11.43;4.05;;;7.20;99.90;;;;;;6212594;23;20066;-84
2022/12/30 05:30:26;;;;;;;21.80;4.60;;;7.10;99.90;;;;;;6186029;23;19997;-84
2022/12/30 05:32:52;;;;;;;15.52;3.92;;;7.10;99.90;;;;;;6185786;23;20008;-84
2022/12/30 05:35:18;;;;;;;17.10;3.85;;;7.10;99.90;;;;;;6186171;23;20050;-85
2022/12/30 05:37:44;;;;;;;14.20;4.32;;;7.10;99.90;;;;;;6212918;23;20075;-86
2022/12/30 05:40:10;;;;;;;24.13;4.15;;;7.10;99.90;;;;;;6212790;23;20008;-87
2022/12/30 05:42:36;;;;;;;16.20;3.92;;;7.10;99.90;;;;;;6186472;23;20376;-86
2022/12/30 05:45:03;;;;;;;11.13;4.28;;;7.00;99.90;;;;;;6186423;23;20055;-86
2022/12/30 05:47:29;;;;;;;12.27;3.70;;;7.00;99.90;;;;;;6186387;23;20004;-86
2022/12/30 05:49:55;;;;;;;10.73;3.83;;;7.00;99.90;;;;;;6185598;23;20004;-86
2022/12/30 05:52:20;;;;;;;12.45;3.97;;;7.00;99.90;;;;;;6187768;23;20000;-84
2022/12/30 05:54:46;;;;;;;16.63;4.13;;;7.00;99.90;;;;;;6212636;23;20003;-85
2022/12/30 05:57:12;;;;;;;20.75;3.85;;;6.90;99.90;;;;;;6185685;23;20007;-85
2022/12/30 05:59:37;;;;;;;17.85;3.97;;;6.90;99.90;;;;;;6185002;23;20013;-85
2022/12/30 06:02:09;;;;;;;15.50;4.28;;;7.00;99.90;;;;;;6185824;23;20004;-85
2022/12/30 06:04:35;;;;;;;12.77;3.70;;;7.00;99.90;;;;;;6213108;23;20075;-86
2022/12/30 06:07:00;;;;;;;19.50;4.90;;;7.00;99.90;;;;;;6188396;23;20091;-86
2022/12/30 06:09:26;;;;;;;16.08;3.60;;;7.00;99.90;;;;;;6186933;23;20047;-86
2022/12/30 06:11:52;;;;;;;25.63;4.07;;;6.90;99.90;;;;;;6188556;23;20077;-85
2022/12/30 06:14:18;;;;;;;13.60;5.13;;;6.90;99.90;;;;;;6187579;23;20005;-86
2022/12/30 06:16:44;;;;;;;26.42;4.07;;;6.90;99.90;;;;;;6190770;23;20028;-85
2022/12/30 06:19:10;;;;;;;22.40;3.80;;;6.90;99.90;;;;;;6196077;23;20019;-85
2022/12/30 06:21:35;;;;;;;19.48;4.75;;;6.90;99.90;;;;;;6201510;23;20076;-85
2022/12/30 06:24:01;;;;;;;13.82;3.90;;;6.90;99.90;;;;;;6226275;23;20112;-85
2022/12/30 06:26:30;;;;;;;21.13;3.88;;;6.90;99.90;;;;;;6208395;23;20003;-84
2022/12/30 06:28:55;;;;;;;15.40;4.53;;;6.90;99.90;;;;;;6227463;23;20383;-85
2022/12/30 06:31:21;;;;;;;11.63;3.92;;;6.90;99.90;;;;;;6219907;23;20001;-85
2022/12/30 06:33:47;;;;;;;7.80;3.42;;;6.90;99.90;;;;;;6193212;23;20079;-85
2022/12/30 06:36:13;;;;;;;10.13;3.47;;;6.80;99.90;;;;;;6197911;23;20075;-83
2022/12/30 06:38:38;;;;;;;10.48;3.28;;;6.80;99.90;;;;;;6193462;23;20005;-84
2022/12/30 06:41:05;;;;;;;18.13;4.15;;;6.70;99.90;;;;;;6189682;23;20012;-86
2022/12/30 06:43:30;;;;;;;16.30;4.50;;;6.70;99.90;;;;;;6214438;23;20023;-81
2022/12/30 06:45:56;;;;;;;13.85;3.88;;;6.60;99.90;;;;;;6213252;23;20001;-82
2022/12/30 06:48:22;;;;;;;20.77;3.70;;;6.60;99.90;;;;;;6214395;23;20015;-84
2022/12/30 06:50:48;;;;;;;16.05;3.72;;;6.60;99.90;;;;;;6187877;23;20428;-84
2022/12/30 06:53:14;;;;;;;18.83;4.90;;;6.60;99.90;;;;;;6188200;23;20003;-83
2022/12/30 06:55:40;;;;;;;12.43;3.97;;;6.60;99.90;;;;;;6188283;23;20011;-84
2022/12/30 06:58:06;;;;;;;13.40;3.42;;;6.60;99.90;;;;;;6215094;23;20028;-84
2022/12/30 07:00:33;;;;;;;17.27;4.25;;;6.60;99.90;;;;;;6186509;23;20001;-85
2022/12/30 07:02:59;;;;;;;17.25;3.92;;;6.60;99.90;;;;;;6187942;23;20080;-85
2022/12/30 07:05:24;;;;;;;15.00;3.25;;;6.60;99.90;;;;;;6189656;23;20040;-85
2022/12/30 07:07:53;;;;;;;18.70;4.43;;;6.60;99.90;;;;;;6190727;23;20011;-85
2022/12/30 07:10:21;;;;;;;22.48;4.55;;;6.60;99.90;;;;;;6217396;23;20015;-84
2022/12/30 07:12:47;;;;;;;11.02;3.38;;;6.60;99.90;;;;;;6219155;23;19985;-84
2022/12/30 07:15:16;;;;;;;16.40;3.63;;;6.50;99.90;;;;;;6195621;23;19996;-83
2022/12/30 07:17:42;;;;;;;17.75;3.55;;;6.50;99.90;;;;;;6193262;23;20004;-82
2022/12/30 07:20:15;;;;;;;21.90;3.85;;;6.50;99.90;;;;;;6187831;23;20004;-85
2022/12/30 07:22:41;;;;;;;16.58;4.05;;;6.50;99.90;;;;;;6215369;23;20024;-84
2022/12/30 07:25:07;;;;;;;15.80;4.07;;;6.40;99.90;;;;;;6189389;23;20004;-84
2022/12/30 07:27:33;;;;;;;14.55;4.95;;;6.40;99.90;;;;;;6214908;23;20028;-84
2022/12/30 07:29:59;;;;;;;10.27;3.60;;;6.40;99.90;;;;;;6187769;23;20005;-82
2022/12/30 07:32:34;;;;;;;18.15;4.25;;;6.40;99.90;;;;;;6188880;23;20007;-84
2022/12/30 07:34:59;;;;;;;12.68;3.38;;;6.40;99.90;;;;;;6189961;23;20179;-84
2022/12/30 07:37:25;;;;;;;21.65;4.28;;;6.40;99.90;;;;;;6217161;23;20005;-84
2022/12/30 07:39:51;;;;;;;11.30;3.53;;;6.30;99.90;;;;;;6215159;23;20011;-83
2022/12/30 07:42:16;;;;;;;16.35;3.83;;;6.30;99.90;;;;;;6187774;23;20009;-82
2022/12/30 07:44:42;;;;;;;17.33;3.47;;;6.30;99.90;;;;;;6187466;23;20325;-82
2022/12/30 07:49:56;;;;;;;16.30;3.42;;;6.50;99.90;;;;;;6206388;23;19997;-84
2022/12/30 07:52:22;;;;;;;12.85;3.70;;;6.50;99.90;;;;;;6191124;23;20428;-83
2022/12/30 07:54:48;;;;;;;16.00;3.72;;;6.50;99.90;;;;;;6190542;23;20031;-83
2022/12/30 07:57:16;;;;;;;14.50;3.20;;;6.50;99.90;;;;;;6214110;23;20076;-79
2022/12/30 07:59:42;;;;;;;10.00;2.38;;;6.60;99.90;;;;;;6186201;23;20082;-81
2022/12/30 08:02:10;;;;;;;14.75;3.15;;;6.70;99.90;;;;;;6185511;23;20004;-81
2022/12/30 08:04:36;;;;;;;15.85;3.55;;;6.70;99.90;;;;;;6186101;23;20001;-82
2022/12/30 08:07:01;;;;;;;16.40;2.95;;;6.70;99.90;;;;;;6211934;23;20063;-81
2022/12/30 08:09:30;;;;;;;8.23;2.33;;;6.70;99.90;;;;;;6187535;23;20008;-86
2022/12/30 08:11:55;;;;;;;9.07;2.53;;;6.70;99.90;;;;;;6187524;23;20024;-79
2022/12/30 08:14:21;;;;;;;12.43;2.58;;;6.70;99.90;;;;;;6187357;23;20012;-81
2022/12/30 08:16:46;;;;;;;10.48;2.70;;;6.70;99.90;;;;;;6214155;23;20072;-81
2022/12/30 08:19:12;;;;;;;14.55;3.35;;;6.70;99.90;;;;;;6214665;23;20004;-81
2022/12/30 08:21:38;;;;;;;14.13;2.45;;;6.80;99.90;;;;;;6188360;23;20015;-81
2022/12/30 08:24:04;;;;;;;9.38;2.47;;;6.80;99.90;;;;;;6188254;23;20004;-81
2022/12/30 08:26:29;;;;;;;15.73;2.47;;;6.80;99.90;;;;;;6187840;23;20036;-79
2022/12/30 08:28:55;;;;;;;11.77;2.58;;;6.90;99.90;;;;;;6187615;23;20387;-80
2022/12/30 08:31:24;;;;;;;12.90;2.70;;;6.90;99.90;;;;;;6187342;23;20004;-80
2022/12/30 08:33:50;;;;;;;17.02;2.78;;;7.00;99.90;;;;;;6187294;23;20083;-79
2022/12/30 08:36:19;;;;;;;15.18;2.83;;;6.90;99.90;;;;;;6213598;23;20375;-79
2022/12/30 08:38:47;;;;;;;13.38;2.65;;;6.90;99.90;;;;;;6186717;23;20060;-80
2022/12/30 08:41:25;;;;;;;11.10;2.55;;;7.00;99.90;;;;;;6185900;23;20486;-80
2022/12/30 08:43:52;;;;;;;12.20;2.75;;;7.00;99.90;;;;;;6186240;23;20015;-80
2022/12/30 08:46:18;;;;;;;8.15;2.22;;;7.00;99.90;;;;;;6186447;23;20455;-79
2022/12/30 08:48:45;;;;;;;9.40;2.97;;;7.10;99.90;;;;;;6186561;23;20000;-80
2022/12/30 08:51:11;;;;;;;15.63;2.92;;;7.10;99.90;;;;;;6212923;23;20388;-80
2022/12/30 08:53:36;;;;;;;10.23;3.38;;;7.10;99.90;;;;;;6186591;23;20000;-79
2022/12/30 08:56:05;;;;;;;8.85;2.47;;;7.20;99.90;;;;;;6212739;23;20015;-80
2022/12/30 08:58:32;;;;;;;17.25;4.70;;;7.30;99.90;;;;;;6212745;23;20009;-80
2022/12/30 09:00:59;;;;;;;15.45;3.10;;;7.30;99.90;;;;;;6185197;23;20005;-79
2022/12/30 09:03:24;;;;;;;15.45;3.13;;;7.30;99.90;;;;;;6186047;23;20008;-79
2022/12/30 09:05:54;;;;;;;13.00;2.42;;;7.30;99.90;;;;;;6188268;23;20462;-78
2022/12/30 09:08:20;;;;;;;14.98;3.13;;;7.40;99.90;;;;;;6185331;23;20340;-78
2022/12/30 09:10:56;;;;;;;14.80;2.80;;;7.40;99.90;;;;;;6211139;23;20009;-79
2022/12/30 09:13:22;;;;;;;9.88;2.60;;;7.50;99.90;;;;;;6212985;23;20028;-79
2022/12/30 09:15:47;;;;;;;17.58;2.92;;;7.60;99.90;;;;;;6186777;23;20372;-79
2022/12/30 09:18:13;;;;;;;11.02;2.45;;;7.60;99.90;;;;;;6186350;23;20031;-79
2022/12/30 09:20:38;;;;;;;11.63;2.72;;;7.70;99.90;;;;;;6213222;23;20075;-79
2022/12/30 09:23:04;;;;;;;15.30;2.55;;;7.80;99.90;;;;;;6187323;23;20466;-80
2022/12/30 09:25:32;;;;;;;10.98;2.53;;;7.90;99.90;;;;;;6186816;23;20008;-78
2022/12/30 09:27:58;;;;;;;11.27;2.92;;;7.90;99.90;;;;;;6212415;23;20000;-79
2022/12/30 09:30:23;;;;;;;11.63;2.53;;;7.90;99.90;;;;;;6185436;23;20004;-79
2022/12/30 09:32:49;;;;;;;12.18;2.25;;;7.90;99.90;;;;;;6212763;23;20318;-79
2022/12/30 09:35:14;;;;;;;9.98;2.72;;;8.00;99.90;;;;;;6212438;23;20004;-79
2022/12/30 09:37:40;;;;;;;5.45;1.75;;;8.00;99.90;;;;;;6185986;23;20043;-79
2022/12/30 09:40:07;;;;;;;19.48;3.05;;;8.10;99.90;;;;;;6211877;23;20004;-79
2022/12/30 09:45:50;;;;;;;11.27;2.58;;;8.10;99.90;;;;;;6212535;23;20015;-79
2022/12/30 09:48:26;;;;;;;12.60;2.55;;;8.20;99.90;;;;;;6166387;23;20096;-79
2022/12/30 09:51:01;;;;;;;14.52;2.78;;;8.20;99.90;;;;;;6185498;23;20004;-79
2022/12/30 09:53:54;;;;;;;17.67;2.85;;;8.30;99.90;;;;;;6212238;23;19997;-79
2022/12/30 09:56:31;;;;;;;9.07;2.15;;;8.40;99.90;;;;;;6186104;23;20008;-79
2022/12/30 09:59:01;;;;;;;17.63;2.90;;;8.40;99.90;;;;;;6185152;23;20104;-78
2022/12/30 10:01:33;;;;;;;9.68;2.17;;;8.60;99.90;;;;;;6211965;23;20009;-78
2022/12/30 10:04:00;;;;;;;12.85;2.70;;;8.70;99.90;;;;;;6212709;23;20012;-79
2022/12/30 10:06:28;;;;;;;6.47;2.05;;;8.70;99.90;;;;;;6212311;23;20391;-79
2022/12/30 10:09:02;;;;;;;7.93;2.40;;;8.80;99.90;;;;;;6185393;23;20651;-79
2022/12/30 10:11:48;;;;;;;10.27;2.30;;;8.80;99.90;;;;;;6184972;23;20100;-79
2022/12/30 10:14:32;;;;;;;9.50;2.85;;;8.90;99.90;;;;;;6185622;23;20015;-79
2022/12/30 10:17:16;;;;;;;12.52;2.90;;;9.00;99.90;;;;;;6212165;23;20015;-79
2022/12/30 10:19:51;;;;;;;8.48;2.38;;;8.90;99.90;;;;;;6184894;23;20016;-79
2022/12/30 10:22:28;;;;;;;15.38;2.58;;;8.90;99.90;;;;;;6182295;23;20007;-79
2022/12/30 10:25:11;;;;;;;10.82;2.78;;;9.00;99.90;;;;;;6184924;23;20011;-78
2022/12/30 10:27:47;;;;;;;12.30;2.70;;;9.30;99.90;;;;;;6185334;23;20024;-78
2022/12/30 10:30:21;;;;;;;13.27;2.33;;;9.40;99.90;;;;;;6184804;23;20440;-79
2022/12/30 10:32:58;;;;;;;5.88;2.10;;;9.50;99.90;;;;;;6185640;23;20012;-79
2022/12/30 10:35:28;;;;;;;7.13;2.13;;;9.40;99.90;;;;;;6185534;23;20055;-79
2022/12/30 10:37:59;;;;;;;9.67;3.13;;;9.30;99.90;;;;;;6212256;23;20439;-79
2022/12/30 10:40:38;;;;;;;17.33;3.08;;;9.40;99.90;;;;;;6184841;23;20369;-79
2022/12/30 10:43:21;;;;;;;11.13;2.70;;;9.40;99.90;;;;;;6184989;23;20444;-78
2022/12/30 10:46:06;;;;;;;10.10;2.13;;;9.60;99.90;;;;;;6185253;23;20295;-79
2022/12/30 10:48:40;;;;;;;10.43;2.83;;;9.90;99.90;;;;;;6185419;23;20026;-78
2022/12/30 10:51:08;;;;;;;7.70;2.13;;;9.70;99.90;;;;;;6211939;23;20031;-79
2022/12/30 10:53:34;;;;;;;9.25;1.88;;;10.00;99.90;;;;;;6186406;23;20001;-79
2022/12/30 10:56:03;;;;;;;13.60;2.22;;;10.30;99.90;;;;;;6186903;23;20016;-79
2022/12/30 10:58:40;;;;;;;7.90;1.85;;;10.70;99.90;;;;;;6186795;23;20475;-79
2022/12/30 11:01:09;;;;;;;8.57;2.65;;;11.10;99.90;;;;;;6186571;23;20091;-80
2022/12/30 11:03:40;;;;;;;13.55;2.25;;;11.60;99.90;;;;;;6213884;23;20072;-81
2022/12/30 11:06:23;;;;;;;9.32;2.80;;;11.90;99.90;;;;;;6187537;23;20008;-85
2022/12/30 11:08:50;;;;;;;8.93;2.65;;;12.00;99.90;;;;;;6187759;23;20008;-82
2022/12/30 11:11:16;;;;;;;6.72;2.40;;;12.00;99.70;;;;;;6213827;23;20116;-81
2022/12/30 11:16:39;;;;;;;15.20;2.90;;;11.40;99.90;;;;;;6214252;23;20011;-81
2022/12/30 11:19:05;;;;;;;7.57;2.38;;;11.60;99.90;;;;;;6187029;23;20009;-80
2022/12/30 11:21:34;;;;;;;6.93;2.13;;;11.60;99.80;;;;;;6186727;23;20005;-80
2022/12/30 11:24:03;;;;;;;7.63;2.38;;;11.40;99.90;;;;;;6185951;23;20004;-81
2022/12/30 11:26:33;;;;;;;9.67;2.20;;;10.90;99.90;;;;;;6212168;23;20321;-80
2022/12/30 11:28:58;;;;;;;10.63;2.35;;;10.60;99.90;;;;;;6185903;23;20459;-80
2022/12/30 11:31:42;;;;;;;10.10;2.53;;;10.20;99.90;;;;;;6211886;23;19997;-79
2022/12/30 11:34:19;;;;;;;10.50;2.33;;;10.00;99.90;;;;;;6186352;23;20007;-80
2022/12/30 11:36:44;;;;;;;10.82;2.00;;;9.80;99.90;;;;;;6186785;23;20140;-79
2022/12/30 11:39:24;;;;;;;9.55;2.30;;;9.80;99.90;;;;;;6186308;23;20017;-79
2022/12/30 11:41:51;;;;;;;10.60;2.17;;;9.80;99.90;;;;;;6187070;23;20009;-80
2022/12/30 11:44:29;;;;;;;6.80;1.63;;;9.80;99.90;;;;;;6213615;23;20004;-79
2022/12/30 11:46:57;;;;;;;10.13;2.70;;;10.00;99.90;;;;;;6213140;23;20079;-80
2022/12/30 11:49:51;;;;;;;9.20;2.00;;;9.90;99.90;;;;;;6185910;23;20015;-80
2022/12/30 11:52:20;;;;;;;9.35;2.33;;;9.90;99.90;;;;;;6186739;23;20337;-79
2022/12/30 11:54:50;;;;;;;5.97;1.65;;;9.90;99.90;;;;;;6186566;23;20055;-79
2022/12/30 11:57:42;;;;;;;6.65;1.60;;;9.90;99.90;;;;;;6212903;23;20004;-80
2022/12/30 12:00:17;;;;;;;8.05;1.95;;;10.00;99.90;;;;;;6185991;23;20005;-81
2022/12/30 12:02:48;;;;;;;12.25;2.53;;;10.00;99.90;;;;;;6212776;23;20028;-80
2022/12/30 12:05:26;;;;;;;8.45;2.05;;;10.10;99.90;;;;;;6186857;23;20091;-81
2022/12/30 12:08:12;;;;;;;6.78;2.20;;;10.00;99.90;;;;;;6187197;23;20012;-82
2022/12/30 12:10:50;;;;;;;7.85;2.13;;;10.00;99.90;;;;;;6196517;23;20013;-81
2022/12/30 12:13:47;;;;;;;14.35;2.42;;;10.00;99.90;;;;;;6191119;23;20000;-81
2022/12/30 12:16:17;;;;;;;92.85;45.13;;;10.20;99.90;;;;;;6186627;23;20012;-78
2022/12/30 12:18:45;;;;;;;15.60;6.95;;;10.40;99.90;;;;;;6185519;23;20043;-81
2022/12/30 12:21:26;;;;;;;8.27;1.95;;;10.30;99.90;;;;;;6185382;23;20008;-80
2022/12/30 12:24:16;;;;;;;8.30;1.83;;;10.50;99.90;;;;;;6185484;23;20384;-80
2022/12/30 12:27:00;;;;;;;3.88;1.75;;;10.50;99.90;;;;;;6211879;23;20130;-80
2022/12/30 12:29:27;;;;;;;5.82;1.70;;;10.70;99.90;;;;;;6185250;23;20028;-80
2022/12/30 12:31:55;;;;;;;11.20;2.28;;;10.70;99.90;;;;;;6186292;23;20027;-79
2022/12/30 12:34:34;;;;;;;6.47;1.80;;;10.50;99.90;;;;;;6186185;23;20012;-80
2022/12/30 12:37:18;;;;;;;8.85;2.58;;;10.40;99.90;;;;;;6186660;23;20039;-79
2022/12/30 12:40:01;;;;;;;9.48;2.10;;;10.30;99.90;;;;;;6184697;23;20008;-80
2022/12/30 12:43:10;;;;;;;8.90;2.13;;;10.40;99.90;;;;;;6186479;23;20066;-79
2022/12/30 12:46:10;;;;;;;6.03;2.10;;;10.30;99.90;;;;;;6154937;23;20009;-80
2022/12/30 13:37:43;;;;;;;4.68;2.10;;;9.60;99.90;;;;;;5159091;27;20447;-50
2022/12/30 13:40:17;;;;;;;11.88;2.20;;;9.60;99.90;;;;;;5140118;27;20464;-49
2022/12/30 13:43:02;;;;;;;6.45;2.53;;;9.50;99.90;;;;;;5141422;27;20030;-57
2022/12/30 13:45:34;;;;;;;6.47;1.77;;;9.30;99.90;;;;;;5154037;27;20663;-48
2022/12/30 13:48:05;;;;;;;15.88;2.83;;;9.30;99.90;;;;;;5160983;27;20121;-51
2022/12/30 13:50:33;;;;;;;6.50;2.03;;;9.20;99.90;;;;;;5158188;27;20022;-47
2022/12/30 13:53:01;;;;;;;6.88;2.40;;;9.20;99.90;;;;;;5157998;27;20019;-50
2022/12/30 13:55:35;;;;;;;7.43;2.58;;;9.20;99.90;;;;;;5158211;27;20019;-47
2022/12/30 13:58:30;;;;;;;16.48;3.17;;;9.20;99.90;;;;;;5152272;27;20068;-47
2022/12/30 14:01:17;;;;;;;4.18;1.73;;;9.20;99.90;;;;;;5154793;27;20495;-43
2022/12/30 14:03:45;;;;;;;8.73;2.83;;;9.30;99.90;;;;;;5153564;27;20064;-45
2022/12/30 14:06:47;;;;;;;6.05;1.70;;;9.30;99.90;;;;;;5151704;27;20025;-47
2022/12/30 14:09:18;;;;;;;7.43;2.05;;;9.30;99.90;;;;;;5136598;27;20022;-44
2022/12/30 14:12:03;;;;;;;8.30;2.53;;;9.20;99.90;;;;;;5147013;27;20029;-46
2022/12/30 14:14:29;;;;;;;4.13;2.20;;;9.20;99.90;;;;;;5140242;27;20049;-46
2022/12/30 14:17:32;;;;;;;12.80;2.55;;;9.10;99.90;;;;;;5140143;27;20553;-47
2022/12/30 14:20:19;;;;;;;9.07;2.13;;;9.00;99.90;;;;;;5143210;27;20530;-45
2022/12/30 14:22:44;;;;;;;13.30;2.80;;;9.00;99.90;;;;;;5137123;27;20019;-47
2022/12/30 14:25:13;;;;;;;5.18;1.98;;;9.00;99.90;;;;;;5139823;27;20025;-46
2022/12/30 14:27:40;;;;;;;8.93;1.90;;;9.00;99.90;;;;;;5143623;27;20466;-46
2022/12/30 14:30:29;;;;;;;7.22;2.05;;;8.90;99.90;;;;;;5141865;27;20027;-46
2022/12/30 14:33:01;;;;;;;9.30;2.63;;;9.00;99.90;;;;;;5138006;27;20039;-47
2022/12/30 14:35:27;;;;;;;6.25;2.05;;;9.00;99.90;;;;;;5140989;27;20053;-47
2022/12/30 14:38:21;;;;;;;7.65;2.47;;;8.90;99.90;;;;;;5143958;27;20046;-48
2022/12/30 14:40:57;;;;;;;9.82;2.33;;;8.80;99.90;;;;;;5122245;27;20023;-49
2022/12/30 14:43:25;;;;;;;9.88;2.28;;;8.80;99.90;;;;;;5120551;27;20110;-47
2022/12/30 14:45:50;;;;;;;6.43;2.13;;;8.80;99.90;;;;;;5140900;27;20018;-51
2022/12/30 14:48:53;;;;;;;7.95;2.30;;;8.80;99.90;;;;;;5143992;27;20011;-51
2022/12/30 14:51:18;;;;;;;6.75;2.03;;;8.70;99.90;;;;;;5141579;27;20038;-50
2022/12/30 14:53:44;;;;;;;9.20;3.45;;;8.70;99.90;;;;;;5147384;27;20018;-50